createdAt,value
2023-03-08T00:02:44.853Z,90.99
2023-03-08T00:07:53.577Z,91.19
2023-03-08T00:12:57.325Z,91.42
2023-03-08T00:18:01.113Z,91.53
2023-03-08T00:23:07.493Z,91.98
2023-03-08T00:28:13.901Z,91.50
2023-03-08T00:33:17.597Z,91.94
2023-03-08T00:38:21.463Z,91.95
2023-03-08T00:43:25.766Z,92.16
2023-03-08T00:48:29.649Z,92.46
2023-03-08T00:53:33.454Z,92.65
2023-03-08T00:58:39.717Z,92.80
2023-03-08T01:03:44.591Z,93.01
2023-03-08T01:08:48.650Z,93.09
2023-03-08T01:13:53.372Z,93.20
2023-03-08T01:18:58.357Z,93.18
2023-03-08T01:24:02.316Z,93.16
2023-03-08T01:29:07.526Z,92.88
2023-03-08T01:34:12.057Z,91.76
2023-03-08T01:39:16.034Z,90.26
2023-03-08T01:44:24.029Z,91.96
2023-03-08T01:49:34.444Z,92.40
2023-03-08T01:54:44.394Z,92.79
2023-03-08T01:59:56.417Z,92.88
2023-03-08T02:05:00.446Z,92.94
2023-03-08T02:10:07.921Z,92.76
2023-03-08T02:15:14.709Z,92.86
2023-03-08T02:20:35.961Z,92.83
2023-03-08T02:26:00.289Z,92.93
2023-03-08T02:31:04.192Z,92.85
2023-03-08T02:36:13.267Z,92.94
2023-03-08T02:41:17.184Z,92.99
2023-03-08T02:46:21.282Z,93.08
2023-03-08T02:51:25.131Z,92.97
2023-03-08T02:56:28.898Z,92.80
2023-03-08T03:01:32.918Z,92.75
2023-03-08T03:06:37.202Z,92.66
2023-03-08T03:11:43.670Z,92.73
2023-03-08T03:16:47.751Z,92.72
2023-03-08T03:21:52.296Z,92.17
2023-03-08T03:26:56.653Z,92.17
2023-03-08T03:32:02.172Z,91.80
2023-03-08T03:37:06.416Z,90.83
2023-03-08T03:42:11.612Z,90.28
2023-03-08T03:47:19.249Z,89.92
2023-03-08T03:52:26.279Z,89.87
2023-03-08T03:57:41.769Z,89.82
2023-03-08T04:02:48.369Z,89.54
2023-03-08T04:07:54.779Z,89.56
2023-03-08T04:13:05.412Z,89.67
2023-03-08T04:18:09.796Z,89.61
2023-03-08T04:23:15.244Z,89.48
2023-03-08T04:28:21.628Z,89.33
2023-03-08T04:33:26.879Z,89.42
2023-03-08T04:38:31.517Z,89.39
2023-03-08T04:43:41.295Z,89.38
2023-03-08T04:48:46.314Z,89.45
2023-03-08T04:53:58.304Z,89.36
2023-03-08T04:59:04.140Z,89.30
2023-03-08T05:04:11.167Z,89.37
2023-03-08T05:09:16.744Z,89.39
2023-03-08T05:14:22.976Z,89.37
2023-03-08T05:19:27.488Z,89.41
2023-03-08T05:24:32.930Z,89.56
2023-03-08T05:29:41.389Z,89.45
2023-03-08T05:34:45.594Z,89.49
2023-03-08T05:39:54.854Z,89.63
2023-03-08T05:45:00.110Z,89.58
2023-03-08T05:50:07.347Z,89.57
2023-03-08T05:55:19.144Z,89.46
2023-03-08T06:00:24.744Z,89.34
2023-03-08T06:05:30.944Z,89.41
2023-03-08T06:10:37.673Z,89.32
2023-03-08T06:15:43.366Z,89.22
2023-03-08T06:21:09.258Z,89.26
2023-03-08T06:26:16.356Z,90.02
2023-03-08T06:31:39.977Z,89.95
2023-03-08T06:36:44.018Z,89.31
2023-03-08T06:41:49.333Z,88.95
2023-03-08T06:46:54.080Z,88.97
2023-03-08T06:51:57.903Z,88.88
2023-03-08T06:57:01.960Z,88.55
2023-03-08T07:02:05.695Z,88.00
2023-03-08T07:07:09.541Z,87.97
2023-03-08T07:12:13.292Z,87.84
2023-03-08T07:17:16.981Z,87.18
2023-03-08T07:22:20.679Z,86.84
2023-03-08T07:27:25.107Z,86.62
2023-03-08T07:32:29.430Z,86.31
2023-03-08T07:37:33.675Z,86.31
2023-03-08T07:42:37.387Z,86.29
2023-03-08T07:47:52.904Z,86.22
2023-03-08T07:52:56.659Z,86.09
2023-03-08T07:58:00.391Z,85.59
2023-03-08T08:03:04.365Z,85.32
2023-03-08T08:08:08.126Z,84.50
2023-03-08T08:13:11.958Z,84.11
2023-03-08T08:18:15.655Z,84.11
2023-03-08T08:23:19.965Z,84.14
2023-03-08T08:28:24.831Z,83.17
2023-03-08T08:33:29.468Z,83.69
2023-03-08T08:38:33.218Z,83.23
2023-03-08T08:43:37.633Z,83.12
2023-03-08T08:48:42.084Z,83.15
2023-03-08T08:53:45.699Z,83.05
2023-03-08T08:58:49.656Z,82.68
2023-03-08T09:03:53.667Z,82.53
2023-03-08T09:08:59.122Z,81.85
2023-03-08T09:14:02.885Z,80.41
2023-03-08T09:19:06.707Z,80.43
2023-03-08T09:24:12.143Z,79.69
2023-03-08T09:29:16.131Z,78.63
2023-03-08T09:34:19.827Z,76.85
2023-03-08T09:39:23.495Z,76.76
2023-03-08T09:44:48.648Z,75.44
2023-03-08T09:49:55.860Z,76.06
2023-03-08T09:55:02.420Z,76.63
2023-03-08T10:00:09.976Z,75.76
2023-03-08T10:05:37.572Z,75.88
2023-03-08T10:10:49.421Z,76.21
2023-03-08T10:16:17.490Z,75.70
2023-03-08T10:21:25.253Z,74.23
2023-03-08T10:26:29.463Z,75.68
2023-03-08T10:31:34.216Z,74.74
2023-03-08T10:36:51.996Z,71.45
2023-03-08T10:42:00.812Z,74.55
2023-03-08T10:47:05.792Z,74.66
2023-03-08T10:52:27.637Z,73.43
2023-03-08T10:57:32.287Z,73.30
2023-03-08T11:02:36.226Z,73.83
2023-03-08T11:07:50.848Z,73.35
2023-03-08T11:13:16.245Z,72.42
2023-03-08T11:18:58.735Z,71.84
2023-03-08T11:24:32.019Z,72.39
2023-03-08T11:29:47.699Z,72.97
2023-03-08T11:34:57.625Z,72.77
2023-03-08T11:40:30.139Z,72.69
2023-03-08T11:45:45.424Z,72.61
2023-03-08T11:51:22.763Z,73.08
2023-03-08T11:56:38.339Z,73.23
2023-03-08T12:01:46.295Z,72.93
2023-03-08T12:06:50.812Z,73.65
2023-03-08T12:11:57.645Z,74.58
2023-03-08T12:17:40.108Z,74.27
2023-03-08T12:22:48.219Z,74.04
2023-03-08T12:28:24.807Z,73.47
2023-03-08T12:33:30.691Z,73.06
2023-03-08T12:38:38.541Z,72.99
2023-03-08T12:43:42.501Z,72.32
2023-03-08T12:49:06.592Z,72.41
2023-03-08T12:54:20.921Z,72.05
2023-03-08T12:59:33.168Z,72.09
2023-03-08T13:04:41.820Z,72.79
2023-03-08T13:10:30.386Z,73.46
2023-03-08T13:29:34.926Z,75.86
2023-03-08T13:34:42.158Z,76.19
2023-03-08T13:40:02.369Z,76.40
2023-03-08T13:45:19.693Z,76.45
2023-03-08T13:50:43.453Z,76.47
2023-03-08T13:55:51.645Z,75.92
2023-03-08T14:01:02.103Z,75.83
2023-03-08T14:06:30.578Z,75.93
2023-03-08T14:11:40.510Z,76.60
2023-03-08T14:16:44.421Z,76.54
2023-03-08T14:21:55.163Z,77.04
2023-03-08T14:27:07.675Z,77.55
2023-03-08T14:32:11.430Z,78.04
2023-03-08T14:37:24.351Z,78.33
2023-03-08T14:42:30.165Z,78.17
2023-03-08T14:47:36.059Z,78.12
2023-03-08T14:52:46.973Z,78.16
2023-03-08T14:57:58.107Z,78.40
2023-03-08T15:03:01.879Z,78.78
2023-03-08T15:08:07.416Z,79.18
2023-03-08T15:13:16.734Z,79.89
2023-03-08T15:18:25.128Z,80.12
2023-03-08T15:23:34.548Z,80.51
2023-03-08T15:28:38.777Z,81.22
2023-03-08T15:33:42.410Z,81.38
2023-03-08T15:38:46.351Z,81.33
2023-03-08T15:43:51.758Z,81.75
2023-03-08T15:48:55.742Z,82.80
2023-03-08T15:53:59.530Z,83.46
2023-03-08T15:59:03.656Z,84.08
2023-03-08T16:04:07.473Z,84.20
2023-03-08T16:09:11.323Z,82.46
2023-03-08T16:14:18.041Z,82.81
2023-03-08T16:19:21.698Z,82.89
2023-03-08T16:24:25.473Z,82.57
2023-03-08T16:29:30.686Z,82.94
2023-03-08T16:34:36.660Z,83.26
2023-03-08T16:39:41.771Z,83.51
2023-03-08T16:44:53.778Z,83.70
2023-03-08T16:49:59.454Z,85.33
2023-03-08T16:55:03.648Z,85.75
2023-03-08T17:00:12.594Z,84.20
2023-03-08T17:05:16.389Z,84.27
2023-03-08T17:10:20.188Z,84.43
2023-03-08T17:15:24.238Z,84.57
2023-03-08T17:20:28.468Z,84.83
2023-03-08T17:25:38.579Z,85.03
2023-03-08T17:30:47.408Z,85.45
2023-03-08T17:35:53.860Z,85.76
2023-03-08T17:40:58.227Z,85.57
2023-03-08T17:46:08.105Z,85.94
2023-03-08T17:51:15.725Z,85.91
2023-03-08T17:56:29.882Z,86.12
2023-03-08T18:01:39.186Z,86.50
2023-03-08T18:06:46.503Z,86.58
2023-03-08T18:11:51.467Z,86.66
2023-03-08T18:16:56.283Z,86.83
2023-03-08T18:22:05.065Z,87.08
2023-03-08T18:27:10.449Z,87.18
2023-03-08T18:32:16.466Z,87.12
2023-03-08T18:37:26.675Z,87.16
2023-03-08T18:42:34.743Z,86.94
2023-03-08T18:47:42.104Z,87.51
2023-03-08T18:52:50.820Z,87.75
2023-03-08T18:57:56.574Z,87.80
2023-03-08T19:03:02.121Z,87.75
2023-03-08T19:08:08.333Z,88.04
2023-03-08T19:13:14.704Z,88.04
2023-03-08T19:18:21.702Z,88.08
2023-03-08T19:23:35.470Z,88.22
2023-03-08T19:28:41.392Z,88.01
2023-03-08T19:33:50.650Z,88.11
2023-03-08T19:38:58.711Z,88.25
2023-03-08T19:44:23.838Z,88.30
2023-03-08T19:49:36.800Z,88.51
2023-03-08T19:54:48.177Z,88.35
2023-03-08T19:59:53.150Z,88.60
2023-03-08T20:05:05.855Z,88.36
2023-03-08T20:10:18.959Z,88.59
2023-03-08T20:15:24.916Z,88.58
2023-03-08T20:20:34.785Z,88.42
2023-03-08T20:25:42.413Z,88.45
2023-03-08T20:30:51.420Z,88.51
2023-03-08T20:36:02.430Z,88.50
2023-03-08T20:41:20.763Z,88.73
2023-03-08T20:46:32.152Z,88.50
2023-03-08T20:51:40.522Z,88.60
2023-03-08T20:56:47.747Z,88.78
2023-03-08T21:01:55.995Z,88.76
2023-03-08T21:07:02.213Z,88.99
2023-03-08T21:12:10.913Z,89.04
2023-03-08T21:17:18.987Z,88.96
2023-03-08T21:22:27.132Z,89.19
2023-03-08T21:27:35.807Z,89.32
2023-03-08T21:32:43.487Z,89.50
2023-03-08T21:37:52.162Z,89.19
2023-03-08T21:42:58.016Z,89.39
2023-03-08T21:48:03.021Z,89.43
2023-03-08T21:53:08.286Z,89.39
2023-03-08T21:58:12.125Z,89.60
2023-03-08T22:03:16.981Z,89.68
2023-03-08T22:08:20.880Z,89.46
2023-03-08T22:13:24.871Z,89.57
2023-03-08T22:18:29.935Z,89.46
2023-03-08T22:23:33.880Z,89.42
2023-03-08T22:28:38.734Z,90.66
2023-03-08T22:33:42.984Z,90.79
2023-03-08T22:38:47.044Z,90.52
2023-03-08T22:43:51.511Z,90.16
2023-03-08T22:48:58.006Z,90.57
2023-03-08T22:54:04.628Z,89.95
2023-03-08T22:59:08.358Z,90.20
2023-03-08T23:04:13.720Z,90.72
2023-03-08T23:09:17.608Z,90.82
2023-03-08T23:14:21.541Z,90.18
2023-03-08T23:19:25.380Z,90.28
2023-03-08T23:24:29.123Z,90.09
2023-03-08T23:29:33.001Z,89.72
2023-03-08T23:34:36.991Z,89.92
2023-03-08T23:39:40.971Z,90.18
2023-03-08T23:44:44.681Z,90.12
2023-03-08T23:49:49.281Z,89.86
2023-03-08T23:54:53.340Z,89.80
2023-03-08T23:59:58.686Z,89.95
